Time;durP1;ratioP1;P1;durP2;ratioP2;P2;SDS_P1;SDS_P2;PMS_P1;PMS_P2;Temp;Humidity;BMP_temperature;BMP_pressure;BME280_temperature;BME280_humidity;BME280_pressure;Samples;Min_cycle;Max_cycle;Signal;HPM_P1;HPM_P2
2022/08/30 00:04:07;;;;;;;;;;;;;;;19.32;44.81;99996.81;12208512;19;20095;-81
2022/08/30 00:08:09;;;;;;;;;;;;;;;19.30;45.22;100001.84;12214349;19;20304;-80
2022/08/30 00:12:10;;;;;;;;;;;;;;;19.24;44.92;100003.06;12190577;19;19971;-81
2022/08/30 00:16:12;;;;;;;;;;;;;;;19.18;45.28;99998.69;12212365;19;19914;-80
2022/08/30 00:20:17;;;;;;;;;;;;;;;19.15;45.22;99991.75;12204253;19;19979;-80
2022/08/30 00:24:18;;;;;;;;;;;;;;;19.15;45.24;99988.94;12187770;19;20477;-80
2022/08/30 00:28:21;;;;;;;;;;;;;;;19.08;45.17;99983.75;12210122;19;19953;-81
2022/08/30 00:32:22;;;;;;;;;;;;;;;19.08;45.48;99982.94;12201749;19;19974;-80
2022/08/30 00:36:24;;;;;;;;;;;;;;;19.03;45.66;99992.19;12187892;19;20377;-81
2022/08/30 00:40:26;;;;;;;;;;;;;;;19.01;45.79;99990.88;12208257;19;19978;-81
2022/08/30 00:44:28;;;;;;;;;;;;;;;19.01;46.23;99990.88;12211493;19;20598;-80
2022/08/30 00:48:30;;;;;;;;;;;;;;;18.97;46.71;99995.38;12189007;19;20051;-80
2022/08/30 00:52:34;;;;;;;;;;;;;;;18.99;45.95;99991.16;12208060;19;20029;-80
2022/08/30 00:56:35;;;;;;;;;;;;;;;18.98;46.41;99995.09;12211289;19;19930;-81
2022/08/30 01:00:37;;;;;;;;;;;;;;;19.03;46.30;99992.19;12187228;19;19979;-81
2022/08/30 01:04:41;;;;;;;;;;;;;;;19.03;46.35;99997.78;12209473;19;20328;-80
2022/08/30 01:08:43;;;;;;;;;;;;;;;19.05;46.08;99995.53;12197662;19;19947;-81
2022/08/30 01:12:46;;;;;;;;;;;;;;;19.07;46.25;99995.25;12208000;19;19907;-81
2022/08/30 01:16:48;;;;;;;;;;;;;;;19.07;46.17;100006.41;12207830;19;19914;-81
2022/08/30 01:20:52;;;;;;;;;;;;;;;19.05;46.24;100003.91;12186057;19;19955;-81
2022/08/30 01:24:56;;;;;;;;;;;;;;;19.04;46.34;100002.25;12209003;19;19911;-81
2022/08/30 01:29:01;;;;;;;;;;;;;;;19.02;46.44;99996.13;12206350;19;19937;-81
2022/08/30 01:33:03;;;;;;;;;;;;;;;18.98;46.98;99997.88;12188277;19;19915;-81
2022/08/30 01:37:04;;;;;;;;;;;;;;;19.01;47.26;99994.47;12205074;19;19922;-81
2022/08/30 01:41:07;;;;;;;;;;;;;;;19.06;47.16;99996.34;12214365;19;19934;-81
2022/08/30 01:45:09;;;;;;;;;;;;;;;19.10;46.85;100000.22;12198628;19;19915;-81
2022/08/30 01:49:13;;;;;;;;;;;;;;;19.10;46.66;99989.06;12221780;19;19985;-81
2022/08/30 01:53:15;;;;;;;;;;;;;;;19.03;46.83;99992.19;12220879;19;19910;-81
2022/08/30 01:57:18;;;;;;;;;;;;;;;19.02;47.53;99987.75;12201583;19;19939;-81
2022/08/30 02:01:22;;;;;;;;;;;;;;;19.00;47.97;99987.22;12275722;19;19922;-81
2022/08/30 02:05:23;;;;;;;;;;;;;;;18.96;48.07;99974.19;12273967;19;19911;-82
2022/08/30 02:09:25;;;;;;;;;;;;;;;18.92;48.42;99978.69;12208154;19;19915;-82
2022/08/30 02:13:26;;;;;;;;;;;;;;;18.97;48.11;99979.44;12221351;19;19934;-82
2022/08/30 02:17:28;;;;;;;;;;;;;;;18.98;48.54;99975.53;12224768;19;19925;-81
2022/08/30 02:21:29;;;;;;;;;;;;;;;19.05;48.00;99978.78;12201710;19;20001;-82
2022/08/30 02:25:31;;;;;;;;;;;;;;;19.05;48.43;99989.13;12223316;19;19917;-82
2022/08/30 02:29:33;;;;;;;;;;;;;;;19.04;48.40;99982.72;12225169;19;19946;-81
2022/08/30 02:33:34;;;;;;;;;;;;;;;19.06;48.75;99985.19;12200883;19;19939;-81
2022/08/30 02:37:40;;;;;;;;;;;;;;;19.08;48.58;99978.16;12219651;19;19914;-82
2022/08/30 02:41:42;;;;;;;;;;;;;;;19.00;48.31;99972.44;12213897;19;19930;-82
2022/08/30 02:45:43;;;;;;;;;;;;;;;18.93;48.52;99970.03;12215250;19;19918;-81
2022/08/30 02:49:45;;;;;;;;;;;;;;;18.79;49.41;99967.13;12221286;19;19990;-81
2022/08/30 02:53:47;;;;;;;;;;;;;;;18.62;49.11;99970.44;12196115;19;19923;-82
2022/08/30 02:57:49;;;;;;;;;;;;;;;18.44;49.92;99971.19;12222310;19;20345;-81
2022/08/30 03:01:51;;;;;;;;;;;;;;;18.28;49.97;99964.16;12216818;19;20071;-81
2022/08/30 03:05:52;;;;;;;;;;;;;;;18.10;50.08;99969.38;12198131;19;19922;-82
2022/08/30 03:09:54;;;;;;;;;;;;;;;17.93;51.30;99963.44;12217662;19;20477;-81
2022/08/30 03:13:55;;;;;;;;;;;;;;;17.76;51.21;99961.09;12215960;19;19974;-81
2022/08/30 03:17:57;;;;;;;;;;;;;;;17.59;51.61;99969.88;12197373;19;20010;-81
2022/08/30 03:21:59;;;;;;;;;;;;;;;17.45;52.33;99955.78;12212042;19;19911;-81
2022/08/30 03:26:00;;;;;;;;;;;;;;;17.36;52.33;99949.16;12217012;19;19913;-81
2022/08/30 03:30:02;;;;;;;;;;;;;;;17.27;53.38;99946.19;12195563;19;20325;-81
2022/08/30 03:34:04;;;;;;;;;;;;;;;17.26;53.25;99944.53;12213920;19;19911;-81
2022/08/30 03:38:05;;;;;;;;;;;;;;;17.33;53.80;99949.75;12219845;19;19911;-81
2022/08/30 03:42:07;;;;;;;;;;;;;;;17.41;53.69;99953.88;12193349;19;19923;-81
2022/08/30 03:46:09;;;;;;;;;;;;;;;17.39;54.03;99962.50;12215962;19;19930;-81
2022/08/30 03:50:12;;;;;;;;;;;;;;;17.29;53.46;99966.22;12219101;19;19918;-81
2022/08/30 03:54:13;;;;;;;;;;;;;;;17.15;54.56;99972.75;12193888;19;19982;-81
2022/08/30 03:58:15;;;;;;;;;;;;;;;17.04;54.92;99969.19;12217444;19;19967;-81
2022/08/30 04:02:19;;;;;;;;;;;;;;;16.88;55.49;99970.41;12213080;19;19907;-81
2022/08/30 04:06:21;;;;;;;;;;;;;;;16.74;56.33;99964.63;12193277;19;19941;-81
2022/08/30 04:10:23;;;;;;;;;;;;;;;16.63;57.30;99969.44;12215861;19;19974;-81
2022/08/30 04:14:25;;;;;;;;;;;;;;;16.50;56.85;99981.16;12215694;19;19918;-81
2022/08/30 04:18:26;;;;;;;;;;;;;;;16.41;57.09;99975.34;12192666;19;20335;-81
2022/08/30 04:22:28;;;;;;;;;;;;;;;16.31;57.02;99973.44;12213112;19;20141;-80
2022/08/30 04:26:29;;;;;;;;;;;;;;;16.15;57.49;99981.03;12218666;19;19911;-80
2022/08/30 04:30:31;;;;;;;;;;;;;;;16.01;58.82;99995.78;12194129;19;19915;-80
2022/08/30 04:34:32;;;;;;;;;;;;;;;15.87;59.26;99982.47;12213291;19;19927;-81
2022/08/30 04:38:35;;;;;;;;;;;;;;;15.81;59.43;99986.38;12215884;19;19911;-80
2022/08/30 04:42:36;;;;;;;;;;;;;;;15.76;60.14;99988.31;12189045;19;20282;-81
2022/08/30 04:46:38;;;;;;;;;;;;;;;15.68;60.11;99992.50;12212506;19;19930;-81
2022/08/30 04:50:45;;;;;;;;;;;;;;;15.66;60.68;99981.63;12190399;19;20015;-81
2022/08/30 04:54:53;;;;;;;;;;;;;;;15.62;62.16;99980.53;12212540;19;19915;-81
2022/08/30 04:58:55;;;;;;;;;;;;;;;15.60;62.30;99977.19;12212894;19;19910;-80
2022/08/30 05:02:56;;;;;;;;;;;;;;;15.59;62.55;99983.03;12184314;19;19941;-80
2022/08/30 05:06:58;;;;;;;;;;;;;;;15.70;62.51;99987.47;12211582;19;19950;-81
2022/08/30 05:11:03;;;;;;;;;;;;;;;15.81;62.95;99994.69;12210053;19;19982;-80
2022/08/30 05:15:04;;;;;;;;;;;;;;;15.87;62.14;99993.56;12184934;19;20803;-80
2022/08/30 05:19:07;;;;;;;;;;;;;;;15.91;61.94;99999.41;12206822;19;19937;-80
2022/08/30 05:23:08;;;;;;;;;;;;;;;15.91;62.25;100000.25;12209872;19;20332;-80
2022/08/30 05:27:13;;;;;;;;;;;;;;;15.91;62.93;100003.03;12183682;19;19949;-81
2022/08/30 05:31:18;;;;;;;;;;;;;;;15.94;62.86;100005.25;12207920;19;19914;-80
2022/08/30 05:35:20;;;;;;;;;;;;;;;16.02;63.36;100016.91;12208683;19;19914;-81
2022/08/30 05:39:26;;;;;;;;;;;;;;;16.07;63.09;100017.72;12186109;19;19915;-80
2022/08/30 05:43:45;;;;;;;;;;;;;;;16.16;62.51;100029.09;12204936;19;19914;-80
2022/08/30 05:47:47;;;;;;;;;;;;;;;16.27;62.15;100029.91;12187749;19;19988;-80
2022/08/30 05:51:48;;;;;;;;;;;;;;;16.37;61.35;100035.44;12208553;19;19966;-80
2022/08/30 05:55:50;;;;;;;;;;;;;;;16.46;61.75;100030.13;12203816;19;19918;-80
2022/08/30 05:59:51;;;;;;;;;;;;;;;16.51;61.48;100033.72;12182069;19;20245;-80
2022/08/30 06:03:55;;;;;;;;;;;;;;;16.53;61.98;100022.31;12205632;19;19924;-80
2022/08/30 06:08:02;;;;;;;;;;;;;;;16.57;62.42;100023.41;12203422;19;19918;-80
2022/08/30 06:12:03;;;;;;;;;;;;;;;16.65;62.70;100022.81;12179499;19;19979;-80
2022/08/30 06:16:05;;;;;;;;;;;;;;;16.84;61.69;100020.25;12193283;19;20034;-80
2022/08/30 06:20:08;;;;;;;;;;;;;;;17.03;61.52;100026.00;12212522;19;20452;-80
2022/08/30 06:24:10;;;;;;;;;;;;;;;17.18;62.26;100025.91;12218461;19;19915;-80
2022/08/30 06:28:12;;;;;;;;;;;;;;;17.40;61.31;100033.84;12271286;19;19918;-80
2022/08/30 06:34:50;;;;;;;;;;;;;;;17.72;60.63;100027.69;12292374;19;19983;-81
2022/08/30 06:38:53;;;;;;;;;;;;;;;17.91;60.03;100030.66;12255193;19;19919;-81
2022/08/30 06:42:55;;;;;;;;;;;;;;;18.05;59.92;100029.94;12276575;19;19971;-81
2022/08/30 06:46:57;;;;;;;;;;;;;;;18.21;59.80;100034.25;12274408;19;20429;-80
2022/08/30 06:50:58;;;;;;;;;;;;;;;18.42;59.16;100030.09;12253032;19;19915;-81
2022/08/30 06:55:00;;;;;;;;;;;;;;;18.62;59.15;100036.56;12273101;19;19919;-81
2022/08/30 06:59:01;;;;;;;;;;;;;;;18.92;58.61;100040.13;12273055;19;19975;-80
2022/08/30 07:03:03;;;;;;;;;;;;;;;19.21;57.98;100053.97;12249710;19;20648;-80
2022/08/30 07:07:05;;;;;;;;;;;;;;;19.52;56.81;100041.19;12277694;19;19934;-80
2022/08/30 07:11:07;;;;;;;;;;;;;;;19.92;55.66;100029.66;12275827;19;20391;-80
2022/08/30 07:15:09;;;;;;;;;;;;;;;20.21;54.50;100043.41;12251227;19;19915;-80
2022/08/30 07:19:10;;;;;;;;;;;;;;;20.55;54.26;100047.81;12272420;19;19962;-80
2022/08/30 07:23:21;;;;;;;;;;;;;;;20.80;52.74;100050.09;12272974;19;19922;-80
2022/08/30 07:27:23;;;;;;;;;;;;;;;21.16;52.61;100052.94;12247893;19;19982;-80
2022/08/30 07:31:25;;;;;;;;;;;;;;;21.36;51.26;100054.47;12270038;19;20359;-81
2022/08/30 07:35:27;;;;;;;;;;;;;;;21.57;51.69;100063.22;12263880;19;19915;-80
2022/08/30 07:39:28;;;;;;;;;;;;;;;21.75;50.22;100047.38;12246601;19;19935;-80
2022/08/30 07:43:32;;;;;;;;;;;;;;;21.83;50.23;100052.22;12253552;19;20343;-81
2022/08/30 07:47:34;;;;;;;;;;;;;;;21.97;50.03;100059.72;12225241;19;19915;-81
2022/08/30 07:51:36;;;;;;;;;;;;;;;22.29;49.26;100065.06;12200968;19;19924;-81
2022/08/30 07:55:38;;;;;;;;;;;;;;;22.55;48.18;100063.53;12225773;19;19914;-80
2022/08/30 07:59:40;;;;;;;;;;;;;;;22.56;47.71;100057.59;12225741;19;19932;-79
2022/08/30 08:03:42;;;;;;;;;;;;;;;22.81;46.99;100063.63;12203097;19;19915;-81
2022/08/30 08:07:43;;;;;;;;;;;;;;;22.96;46.82;100064.06;12261332;19;19919;-81
2022/08/30 08:11:45;;;;;;;;;;;;;;;23.20;46.72;100060.78;12258057;19;19918;-80
2022/08/30 08:15:46;;;;;;;;;;;;;;;23.54;45.82;100067.59;12233232;19;19926;-82
2022/08/30 08:19:48;;;;;;;;;;;;;;;23.76;45.16;100063.81;12224152;19;19914;-80
2022/08/30 08:23:50;;;;;;;;;;;;;;;23.85;44.64;100061.81;12205384;19;19943;-81
2022/08/30 08:27:52;;;;;;;;;;;;;;;24.06;43.87;100073.22;12224455;19;19922;-81
2022/08/30 08:31:56;;;;;;;;;;;;;;;24.35;43.83;100063.19;12225306;19;19920;-81
2022/08/30 08:35:58;;;;;;;;;;;;;;;24.53;43.00;100064.00;12197375;19;20616;-82
2022/08/30 08:39:59;;;;;;;;;;;;;;;24.73;42.16;100056.78;12225069;19;19960;-80
2022/08/30 08:44:06;;;;;;;;;;;;;;;25.15;42.10;100052.09;12223808;19;19919;-81
2022/08/30 08:48:10;;;;;;;;;;;;;;;25.56;40.76;100050.47;12201619;19;19922;-81
2022/08/30 08:56:38;;;;;;;;;;;;;;;25.72;40.83;100047.81;12217263;19;19911;-82
2022/08/30 09:00:39;;;;;;;;;;;;;;;25.72;40.87;100052.66;12197785;19;19919;-81
2022/08/30 09:04:41;;;;;;;;;;;;;;;25.83;40.45;100054.72;12215217;19;19923;-82
2022/08/30 09:08:42;;;;;;;;;;;;;;;26.06;39.91;100054.34;12218506;19;19943;-82
2022/08/30 09:12:44;;;;;;;;;;;;;;;26.36;39.58;100055.84;12195251;19;19915;-81
2022/08/30 09:16:49;;;;;;;;;;;;;;;26.53;39.28;100045.50;12219380;19;19930;-82
2022/08/30 09:20:51;;;;;;;;;;;;;;;26.73;38.90;100050.25;12200867;19;20395;-81
2022/08/30 09:25:01;;;;;;;;;;;;;;;26.86;38.30;100050.25;12221595;19;19915;-82
2022/08/30 09:29:14;;;;;;;;;;;;;;;27.01;38.27;100044.72;12222065;19;19918;-81
2022/08/30 09:33:18;;;;;;;;;;;;;;;27.19;36.66;100042.47;12200058;19;19914;-81
2022/08/30 09:37:42;;;;;;;;;;;;;;;27.07;36.50;100044.44;12214116;19;19983;-82
2022/08/30 09:41:47;;;;;;;;;;;;;;;27.09;36.42;100037.25;12221216;19;19911;-82
2022/08/30 09:46:05;;;;;;;;;;;;;;;27.44;35.89;100031.09;12199281;19;19922;-83
2022/08/30 09:50:19;;;;;;;;;;;;;;;27.76;36.05;100032.03;12222041;19;19943;-80
2022/08/30 09:54:32;;;;;;;;;;;;;;;27.79;35.04;100019.22;12197037;19;20389;-80
2022/08/30 09:59:00;;;;;;;;;;;;;;;28.06;35.20;100017.53;12215695;19;19966;-80
2022/08/30 10:03:17;;;;;;;;;;;;;;;28.09;34.84;100022.47;12195502;19;20401;-82
2022/08/30 10:07:51;;;;;;;;;;;;;;;28.29;34.18;100021.41;12217846;19;19931;-82
2022/08/30 10:11:59;;;;;;;;;;;;;;;28.39;33.96;100009.50;12198924;19;20043;-81
2022/08/30 10:16:14;;;;;;;;;;;;;;;28.35;33.18;100000.09;12222698;19;19907;-81
2022/08/30 10:20:20;;;;;;;;;;;;;;;28.80;33.12;100000.84;12220414;19;19949;-81
2022/08/30 10:24:25;;;;;;;;;;;;;;;28.91;32.86;99993.38;12174547;19;20276;-81
2022/08/30 10:28:36;;;;;;;;;;;;;;;29.04;33.28;99986.44;12213656;19;20266;-81
2022/08/30 10:32:52;;;;;;;;;;;;;;;29.18;32.38;99988.78;12217400;19;19936;-82
2022/08/30 10:36:56;;;;;;;;;;;;;;;29.08;32.17;99989.34;12187925;19;19918;-82
2022/08/30 10:41:13;;;;;;;;;;;;;;;29.07;31.81;99991.38;12217904;19;19930;-81
2022/08/30 10:45:16;;;;;;;;;;;;;;;29.26;31.66;99978.41;12193988;19;19910;-82
2022/08/30 10:49:20;;;;;;;;;;;;;;;29.57;30.71;99971.78;12216187;19;19939;-81
2022/08/30 10:53:29;;;;;;;;;;;;;;;29.74;31.37;99970.50;12210939;19;19927;-81
2022/08/30 10:57:31;;;;;;;;;;;;;;;30.10;30.24;99971.19;12182637;19;20010;-82
2022/08/30 11:01:34;;;;;;;;;;;;;;;30.33;29.67;99962.69;12213882;19;19911;-80
2022/08/30 11:06:03;;;;;;;;;;;;;;;30.29;29.38;99959.78;12211212;19;19919;-81
2022/08/30 11:10:29;;;;;;;;;;;;;;;30.34;28.64;99959.47;12190907;19;19907;-81
2022/08/30 11:14:31;;;;;;;;;;;;;;;30.64;28.76;99958.75;12210984;19;19911;-81
2022/08/30 11:18:44;;;;;;;;;;;;;;;30.74;28.20;99963.75;12194325;19;19911;-82
2022/08/30 11:23:10;;;;;;;;;;;;;;;31.01;27.84;99967.44;12215705;19;19919;-83
2022/08/30 11:27:31;;;;;;;;;;;;;;;30.93;27.99;99957.16;12189660;19;19915;-82
2022/08/30 11:31:33;;;;;;;;;;;;;;;31.02;27.81;99959.72;12219561;19;19979;-82
2022/08/30 11:35:37;;;;;;;;;;;;;;;31.44;28.08;99944.44;12220773;19;19919;-83
2022/08/30 11:39:49;;;;;;;;;;;;;;;31.57;26.68;99945.03;12197843;19;19926;-83
2022/08/30 11:43:53;;;;;;;;;;;;;;;31.75;26.98;99952.56;12221019;19;20060;-81
2022/08/30 11:47:56;;;;;;;;;;;;;;;32.22;27.28;99935.97;12201492;19;20424;-80
2022/08/30 11:52:05;;;;;;;;;;;;;;;32.97;26.50;99935.72;12223492;19;19923;-82
2022/08/30 11:56:32;;;;;;;;;;;;;;;33.30;26.62;99937.53;12221795;19;20456;-81
2022/08/30 12:00:35;;;;;;;;;;;;;;;33.91;25.55;99937.75;12201225;19;19915;-81
2022/08/30 12:04:44;;;;;;;;;;;;;;;34.37;24.56;99926.38;12222483;19;19914;-81
2022/08/30 12:08:50;;;;;;;;;;;;;;;34.85;23.85;99923.06;12219514;19;19971;-80
2022/08/30 12:12:58;;;;;;;;;;;;;;;35.11;24.36;99926.72;12220763;19;19919;-81
2022/08/30 12:21:25;;;;;;;;;;;;;;;35.17;21.92;99909.94;12196657;19;19911;-81
2022/08/30 12:25:32;;;;;;;;;;;;;;;35.68;22.57;99914.19;12217891;19;19919;-81
2022/08/30 12:29:35;;;;;;;;;;;;;;;36.28;21.57;99916.66;12216815;19;19915;-82
2022/08/30 12:33:41;;;;;;;;;;;;;;;36.76;20.70;99912.13;12193610;19;20238;-82
2022/08/30 12:37:53;;;;;;;;;;;;;;;37.07;20.96;99904.44;12212014;19;19917;-79
2022/08/30 12:42:08;;;;;;;;;;;;;;;36.98;20.28;99906.16;12193538;19;20368;-80
2022/08/30 12:46:14;;;;;;;;;;;;;;;37.26;20.64;99905.03;12220538;19;20731;-80
2022/08/30 12:50:19;;;;;;;;;;;;;;;37.76;19.43;99892.84;12221212;19;19922;-80
2022/08/30 12:54:26;;;;;;;;;;;;;;;38.26;18.95;99897.84;12189227;19;20553;-81
2022/08/30 12:58:34;;;;;;;;;;;;;;;38.32;18.40;99887.44;12223291;19;19970;-82
2022/08/30 13:02:45;;;;;;;;;;;;;;;38.23;18.53;99879.38;12219637;19;19914;-81
2022/08/30 13:06:56;;;;;;;;;;;;;;;38.72;18.30;99882.63;12198404;19;20118;-81
2022/08/30 13:11:04;;;;;;;;;;;;;;;39.30;18.20;99884.41;12219259;19;19914;-81
2022/08/30 13:15:12;;;;;;;;;;;;;;;37.95;18.86;99877.78;12196816;19;19915;-82
2022/08/30 13:19:29;;;;;;;;;;;;;;;37.14;19.54;99875.59;12219965;19;19915;-82
2022/08/30 13:23:30;;;;;;;;;;;;;;;35.77;19.99;99869.50;12225724;19;20329;-81
2022/08/30 13:27:33;;;;;;;;;;;;;;;35.04;20.74;99873.16;12200305;19;20255;-80
2022/08/30 13:31:37;;;;;;;;;;;;;;;35.69;20.04;99865.03;12218767;19;20011;-81
2022/08/30 13:35:39;;;;;;;;;;;;;;;36.58;19.16;99854.09;12216917;19;19939;-81
2022/08/30 13:39:41;;;;;;;;;;;;;;;36.76;19.45;99836.66;12193835;19;19928;-80
2022/08/30 13:43:44;;;;;;;;;;;;;;;36.95;19.29;99847.53;12210748;19;20349;-81
2022/08/30 13:48:06;;;;;;;;;;;;;;;37.11;19.43;99844.06;12197120;19;19932;-81
2022/08/30 13:52:08;;;;;;;;;;;;;;;36.80;19.21;99831.69;12217956;19;19921;-81
2022/08/30 13:56:23;;;;;;;;;;;;;;;35.92;20.35;99843.59;12216327;19;20313;-81
2022/08/30 14:00:25;;;;;;;;;;;;;;;35.12;20.84;99839.56;12195977;19;19923;-80
2022/08/30 14:04:28;;;;;;;;;;;;;;;34.21;21.53;99831.63;12212641;19;19963;-81
2022/08/30 14:08:30;;;;;;;;;;;;;;;33.62;21.70;99831.97;12225606;19;19915;-79
2022/08/30 14:12:51;;;;;;;;;;;;;;;33.10;22.23;99826.50;12245524;19;19911;-79
2022/08/30 14:16:53;;;;;;;;;;;;;;;32.98;22.40;99826.88;12257265;19;19919;-81
2022/08/30 14:20:56;;;;;;;;;;;;;;;33.16;22.50;99817.56;12203651;19;19930;-81
2022/08/30 14:25:00;;;;;;;;;;;;;;;33.72;21.90;99810.34;12222428;19;20547;-80
2022/08/30 14:33:52;;;;;;;;;;;;;;;34.24;21.68;99802.19;12241298;19;19914;-81
2022/08/30 14:38:33;;;;;;;;;;;;;;;35.20;20.96;99800.25;12245700;19;19914;-79
2022/08/30 14:43:07;;;;;;;;;;;;;;;36.02;20.01;99796.78;12225220;19;20241;-81
2022/08/30 14:47:09;;;;;;;;;;;;;;;36.35;20.28;99791.56;12226317;19;19919;-82
2022/08/30 14:51:12;;;;;;;;;;;;;;;36.06;20.20;99783.28;12201220;19;19914;-83
2022/08/30 14:55:14;;;;;;;;;;;;;;;35.37;20.71;99788.69;12228207;19;19945;-82
2022/08/30 14:59:17;;;;;;;;;;;;;;;34.33;21.13;99776.84;12228484;19;19915;-81
2022/08/30 15:03:18;;;;;;;;;;;;;;;33.38;21.82;99773.56;12204134;19;20261;-81
2022/08/30 15:07:20;;;;;;;;;;;;;;;32.56;22.84;99774.06;12228123;19;19981;-82
2022/08/30 15:11:24;;;;;;;;;;;;;;;32.11;23.06;99767.66;12225997;19;19935;-82
2022/08/30 15:15:26;;;;;;;;;;;;;;;31.81;22.84;99764.97;12200200;19;20295;-82
2022/08/30 15:19:28;;;;;;;;;;;;;;;31.84;22.93;99761.34;12227800;19;19919;-81
2022/08/30 15:23:29;;;;;;;;;;;;;;;32.09;22.98;99761.53;12226358;19;20523;-80
2022/08/30 15:27:31;;;;;;;;;;;;;;;31.82;23.22;99751.56;12204554;19;19928;-81
2022/08/30 15:31:33;;;;;;;;;;;;;;;31.46;24.17;99746.38;12225366;19;20337;-81
2022/08/30 15:35:35;;;;;;;;;;;;;;;31.41;24.16;99748.75;12229214;19;19914;-82
2022/08/30 15:39:36;;;;;;;;;;;;;;;31.38;24.42;99743.84;12205775;19;19910;-81
2022/08/30 15:43:41;;;;;;;;;;;;;;;31.37;24.03;99742.22;12217202;19;19986;-81
2022/08/30 15:47:42;;;;;;;;;;;;;;;31.23;24.31;99740.84;12227423;19;19915;-83
2022/08/30 15:51:46;;;;;;;;;;;;;;;30.90;24.86;99740.88;12204060;19;19979;-82
2022/08/30 15:55:47;;;;;;;;;;;;;;;30.76;24.89;99744.38;12218460;19;19923;-81
2022/08/30 15:59:53;;;;;;;;;;;;;;;30.64;25.44;99739.75;12202113;19;19993;-81
2022/08/30 16:03:54;;;;;;;;;;;;;;;30.72;24.90;99738.63;12218511;19;19959;-81
2022/08/30 16:07:57;;;;;;;;;;;;;;;30.66;25.33;99743.03;12222593;19;19926;-81
2022/08/30 16:12:00;;;;;;;;;;;;;;;30.56;25.01;99741.69;12201491;19;19911;-82
2022/08/30 16:16:02;;;;;;;;;;;;;;;30.51;25.30;99744.88;12220557;19;19946;-81
2022/08/30 16:20:05;;;;;;;;;;;;;;;30.41;25.39;99737.84;12223265;19;19970;-81
2022/08/30 16:24:07;;;;;;;;;;;;;;;30.53;25.04;99745.31;12199346;19;19919;-81
2022/08/30 16:28:13;;;;;;;;;;;;;;;30.32;25.50;99728.78;12223314;19;19939;-81
2022/08/30 16:32:18;;;;;;;;;;;;;;;30.12;25.70;99738.63;12220482;19;19911;-81
2022/08/30 16:36:20;;;;;;;;;;;;;;;29.81;26.24;99732.06;12200325;19;19928;-81
2022/08/30 16:40:22;;;;;;;;;;;;;;;29.48;26.19;99722.19;12226732;19;19914;-82
2022/08/30 16:44:25;;;;;;;;;;;;;;;29.36;26.01;99722.38;12217982;19;19928;-81
2022/08/30 16:48:30;;;;;;;;;;;;;;;29.23;26.38;99721.72;12209621;19;20356;-81
2022/08/30 16:52:32;;;;;;;;;;;;;;;29.26;26.39;99723.00;12230300;19;19914;-81
2022/08/30 16:56:36;;;;;;;;;;;;;;;29.25;26.54;99727.03;12221951;19;19911;-80
2022/08/30 17:00:37;;;;;;;;;;;;;;;29.20;26.54;99724.50;12199213;19;19911;-81
2022/08/30 17:04:40;;;;;;;;;;;;;;;29.15;26.84;99724.81;12265628;19;19919;-80
2022/08/30 17:08:42;;;;;;;;;;;;;;;29.05;27.17;99729.09;12269672;19;19907;-80
2022/08/30 17:12:44;;;;;;;;;;;;;;;28.84;27.13;99740.84;12248000;19;19911;-80
2022/08/30 17:16:45;;;;;;;;;;;;;;;28.58;27.44;99739.50;12260017;19;19919;-82
2022/08/30 17:20:47;;;;;;;;;;;;;;;28.33;27.89;99736.09;12227243;19;19911;-81
2022/08/30 17:24:51;;;;;;;;;;;;;;;28.11;28.25;99748.97;12201404;19;19907;-81
2022/08/30 17:28:53;;;;;;;;;;;;;;;27.83;28.69;99736.97;12220248;19;20252;-81
2022/08/30 17:32:56;;;;;;;;;;;;;;;27.52;28.63;99749.94;12194241;19;19936;-81
2022/08/30 17:36:58;;;;;;;;;;;;;;;27.30;29.18;99748.56;12220236;19;19907;-81
2022/08/30 17:41:05;;;;;;;;;;;;;;;27.13;29.88;99754.53;12215198;19;19930;-81
2022/08/30 17:45:08;;;;;;;;;;;;;;;26.94;29.55;99753.22;12190753;19;19918;-80
2022/08/30 17:49:09;;;;;;;;;;;;;;;26.78;29.72;99758.84;12216890;19;19978;-81
2022/08/30 17:53:12;;;;;;;;;;;;;;;26.58;29.80;99766.34;12217191;19;19919;-82
2022/08/30 17:57:13;;;;;;;;;;;;;;;26.40;30.27;99772.63;12194780;19;20253;-81
2022/08/30 18:01:17;;;;;;;;;;;;;;;26.23;30.65;99779.34;12217269;19;19919;-79
2022/08/30 18:05:21;;;;;;;;;;;;;;;26.10;30.74;99784.19;12212185;19;20364;-79
2022/08/30 18:09:25;;;;;;;;;;;;;;;25.95;31.41;99784.94;12190777;19;19915;-79
2022/08/30 18:13:33;;;;;;;;;;;;;;;25.75;32.33;99795.13;12210202;19;19915;-80
2022/08/30 18:17:35;;;;;;;;;;;;;;;25.55;31.92;99802.50;12212388;19;20002;-79
2022/08/30 18:21:36;;;;;;;;;;;;;;;25.36;32.21;99800.25;12191891;19;19914;-79
2022/08/30 18:25:39;;;;;;;;;;;;;;;25.15;32.74;99800.31;12223506;19;19910;-79
2022/08/30 18:29:41;;;;;;;;;;;;;;;24.95;32.93;99793.50;12219438;19;19918;-79
2022/08/30 18:33:43;;;;;;;;;;;;;;;24.72;33.83;99790.28;12196096;19;19915;-79
2022/08/30 18:37:45;;;;;;;;;;;;;;;24.61;33.85;99803.13;12223090;19;19907;-79
2022/08/30 18:41:46;;;;;;;;;;;;;;;24.51;33.63;99804.34;12220787;19;19914;-79
2022/08/30 18:45:49;;;;;;;;;;;;;;;24.45;34.21;99803.75;12187284;19;19926;-79
2022/08/30 18:49:53;;;;;;;;;;;;;;;24.38;34.16;99811.06;12217057;19;19911;-79
2022/08/30 18:53:55;;;;;;;;;;;;;;;24.30;34.19;99815.56;12193948;19;19915;-79
2022/08/30 18:57:57;;;;;;;;;;;;;;;24.22;34.02;99816.47;12219228;19;19919;-80
2022/08/30 19:02:02;;;;;;;;;;;;;;;24.15;34.67;99814.16;12217555;19;19955;-80
2022/08/30 19:06:04;;;;;;;;;;;;;;;24.06;34.74;99816.22;12195447;19;19926;-79
2022/08/30 19:10:08;;;;;;;;;;;;;;;23.95;35.70;99821.44;12219997;19;19919;-80
2022/08/30 19:14:12;;;;;;;;;;;;;;;23.87;35.82;99819.47;12220288;19;19922;-79
2022/08/30 19:18:14;;;;;;;;;;;;;;;23.81;36.09;99816.03;12202599;19;19915;-80
2022/08/30 19:22:36;;;;;;;;;;;;;;;23.73;36.15;99824.50;12219658;19;19946;-79
2022/08/30 19:26:58;;;;;;;;;;;;;;;23.69;36.47;99824.31;12196809;19;20510;-80
2022/08/30 19:30:59;;;;;;;;;;;;;;;23.64;36.69;99830.94;12218678;19;20335;-80
2022/08/30 19:35:01;;;;;;;;;;;;;;;23.67;36.61;99826.66;12217477;19;19915;-81
2022/08/30 19:39:03;;;;;;;;;;;;;;;23.64;37.36;99830.13;12200978;19;19919;-80
2022/08/30 19:43:05;;;;;;;;;;;;;;;23.60;36.94;99829.16;12233866;19;19914;-80
2022/08/30 19:47:08;;;;;;;;;;;;;;;23.56;37.20;99834.66;12226594;19;19932;-81
2022/08/30 19:51:11;;;;;;;;;;;;;;;23.60;37.28;99834.78;12213962;19;21478;-82
2022/08/30 19:55:14;;;;;;;;;;;;;;;23.54;37.38;99834.16;12236493;19;19926;-80
2022/08/30 19:59:17;;;;;;;;;;;;;;;23.46;37.93;99834.16;12237955;19;19922;-81
2022/08/30 20:03:18;;;;;;;;;;;;;;;23.50;37.42;99847.25;12219424;19;20404;-84
2022/08/30 20:07:20;;;;;;;;;;;;;;;23.43;37.63;99849.72;12237753;19;20353;-82
2022/08/30 20:11:27;;;;;;;;;;;;;;;23.37;37.88;99851.06;12237094;19;19915;-81
2022/08/30 20:15:31;;;;;;;;;;;;;;;23.34;37.93;99854.56;12206871;19;19932;-82
2022/08/30 20:19:32;;;;;;;;;;;;;;;23.24;38.08;99861.34;12227189;19;19982;-82
2022/08/30 20:23:34;;;;;;;;;;;;;;;23.14;38.31;99861.69;12228002;19;19907;-80
2022/08/30 20:27:36;;;;;;;;;;;;;;;23.09;38.15;99865.50;12202699;19;20030;-81
2022/08/30 20:31:38;;;;;;;;;;;;;;;23.02;38.54;99869.97;12232070;19;19914;-80
2022/08/30 20:35:42;;;;;;;;;;;;;;;22.91;39.27;99863.84;12234697;19;19915;-82
2022/08/30 20:39:54;;;;;;;;;;;;;;;22.82;39.50;99868.66;12227477;19;19919;-82
2022/08/30 20:43:57;;;;;;;;;;;;;;;22.68;39.76;99861.19;12243922;19;19911;-82
2022/08/30 20:47:58;;;;;;;;;;;;;;;22.64;39.96;99860.22;12199882;19;19922;-81
2022/08/30 20:52:00;;;;;;;;;;;;;;;22.67;39.96;99862.34;12222953;19;20001;-82
2022/08/30 20:56:10;;;;;;;;;;;;;;;22.60;39.84;99864.81;12224370;19;19915;-81
2022/08/30 21:00:12;;;;;;;;;;;;;;;22.55;40.40;99859.38;12205311;19;20235;-81
2022/08/30 21:04:14;;;;;;;;;;;;;;;22.50;40.49;99865.97;12223282;19;19919;-79
2022/08/30 21:08:16;;;;;;;;;;;;;;;22.56;40.17;99855.41;12221252;19;19911;-81